sensor_id;sensor_type;location;lat;lon;timestamp;temperature;humidity
16578;DHT22;8401;52.528;13.340;2023-05-13T00:01:17;17.00;81.10
16578;DHT22;8401;52.528;13.340;2023-05-13T00:03:42;17.00;81.20
16578;DHT22;8401;52.528;13.340;2023-05-13T00:06:08;16.90;81.40
16578;DHT22;8401;52.528;13.340;2023-05-13T00:08:33;16.90;81.70
16578;DHT22;8401;52.528;13.340;2023-05-13T00:10:59;16.80;81.60
16578;DHT22;8401;52.528;13.340;2023-05-13T00:13:25;16.80;81.90
16578;DHT22;8401;52.528;13.340;2023-05-13T00:15:51;16.80;81.90
16578;DHT22;8401;52.528;13.340;2023-05-13T00:18:17;16.80;82.00
16578;DHT22;8401;52.528;13.340;2023-05-13T00:20:43;16.70;82.70
16578;DHT22;8401;52.528;13.340;2023-05-13T00:23:09;16.70;82.50
16578;DHT22;8401;52.528;13.340;2023-05-13T00:25:35;16.70;82.40
16578;DHT22;8401;52.528;13.340;2023-05-13T00:28:02;16.70;82.40
16578;DHT22;8401;52.528;13.340;2023-05-13T00:30:27;16.60;82.70
16578;DHT22;8401;52.528;13.340;2023-05-13T00:32:53;16.60;82.70
16578;DHT22;8401;52.528;13.340;2023-05-13T00:35:18;16.60;82.70
16578;DHT22;8401;52.528;13.340;2023-05-13T00:37:44;16.50;83.30
16578;DHT22;8401;52.528;13.340;2023-05-13T00:40:24;16.50;83.30
16578;DHT22;8401;52.528;13.340;2023-05-13T00:42:50;16.50;83.20
16578;DHT22;8401;52.528;13.340;2023-05-13T00:45:16;16.50;83.40
16578;DHT22;8401;52.528;13.340;2023-05-13T00:47:43;16.50;83.50
16578;DHT22;8401;52.528;13.340;2023-05-13T00:50:09;16.40;83.70
16578;DHT22;8401;52.528;13.340;2023-05-13T00:52:37;16.40;83.90
16578;DHT22;8401;52.528;13.340;2023-05-13T00:55:03;16.40;84.00
16578;DHT22;8401;52.528;13.340;2023-05-13T00:57:30;16.30;84.60
16578;DHT22;8401;52.528;13.340;2023-05-13T00:59:55;16.50;84.10
16578;DHT22;8401;52.528;13.340;2023-05-13T01:03:12;16.50;84.10
16578;DHT22;8401;52.528;13.340;2023-05-13T01:05:25;16.40;84.30
16578;DHT22;8401;52.528;13.340;2023-05-13T01:08:04;16.50;84.10
16578;DHT22;8401;52.528;13.340;2023-05-13T01:10:43;16.40;84.10
16578;DHT22;8401;52.528;13.340;2023-05-13T01:13:13;16.30;84.50
16578;DHT22;8401;52.528;13.340;2023-05-13T01:15:50;16.30;84.40
16578;DHT22;8401;52.528;13.340;2023-05-13T01:18:27;16.30;84.50
16578;DHT22;8401;52.528;13.340;2023-05-13T01:20:53;16.30;84.80
16578;DHT22;8401;52.528;13.340;2023-05-13T01:23:20;16.30;85.40
16578;DHT22;8401;52.528;13.340;2023-05-13T01:25:46;16.30;84.90
16578;DHT22;8401;52.528;13.340;2023-05-13T01:28:12;16.40;84.50
16578;DHT22;8401;52.528;13.340;2023-05-13T01:30:38;16.30;84.60
16578;DHT22;8401;52.528;13.340;2023-05-13T01:33:04;16.30;84.80
16578;DHT22;8401;52.528;13.340;2023-05-13T01:35:30;16.20;84.90
16578;DHT22;8401;52.528;13.340;2023-05-13T01:37:56;16.20;85.00
16578;DHT22;8401;52.528;13.340;2023-05-13T01:40:23;16.10;85.10
16578;DHT22;8401;52.528;13.340;2023-05-13T01:42:49;16.20;85.10
16578;DHT22;8401;52.528;13.340;2023-05-13T01:45:14;16.10;85.60
16578;DHT22;8401;52.528;13.340;2023-05-13T01:47:40;16.10;85.60
16578;DHT22;8401;52.528;13.340;2023-05-13T01:50:06;16.10;85.40
16578;DHT22;8401;52.528;13.340;2023-05-13T01:52:33;16.10;85.50
16578;DHT22;8401;52.528;13.340;2023-05-13T01:54:58;16.10;85.50
16578;DHT22;8401;52.528;13.340;2023-05-13T01:57:24;16.00;85.60
16578;DHT22;8401;52.528;13.340;2023-05-13T01:59:50;15.90;86.50
16578;DHT22;8401;52.528;13.340;2023-05-13T02:02:17;15.80;86.60
16578;DHT22;8401;52.528;13.340;2023-05-13T02:04:43;15.90;86.50
16578;DHT22;8401;52.528;13.340;2023-05-13T02:07:08;15.90;86.20
16578;DHT22;8401;52.528;13.340;2023-05-13T02:09:34;15.90;86.50
16578;DHT22;8401;52.528;13.340;2023-05-13T02:12:00;16.00;86.20
16578;DHT22;8401;52.528;13.340;2023-05-13T02:14:25;15.90;86.30
16578;DHT22;8401;52.528;13.340;2023-05-13T02:16:51;16.00;85.90
16578;DHT22;8401;52.528;13.340;2023-05-13T02:19:17;16.00;85.90
16578;DHT22;8401;52.528;13.340;2023-05-13T02:21:44;15.90;85.80
16578;DHT22;8401;52.528;13.340;2023-05-13T02:24:09;15.90;86.10
16578;DHT22;8401;52.528;13.340;2023-05-13T02:26:35;15.80;86.40
16578;DHT22;8401;52.528;13.340;2023-05-13T02:29:01;15.80;86.20
16578;DHT22;8401;52.528;13.340;2023-05-13T02:31:27;15.70;86.50
16578;DHT22;8401;52.528;13.340;2023-05-13T02:33:52;15.70;86.50
16578;DHT22;8401;52.528;13.340;2023-05-13T02:36:18;15.70;86.70
16578;DHT22;8401;52.528;13.340;2023-05-13T02:38:44;15.60;87.00
16578;DHT22;8401;52.528;13.340;2023-05-13T02:41:10;15.60;86.70
16578;DHT22;8401;52.528;13.340;2023-05-13T02:43:35;15.60;86.70
16578;DHT22;8401;52.528;13.340;2023-05-13T02:46:01;15.50;87.00
16578;DHT22;8401;52.528;13.340;2023-05-13T02:48:28;15.50;87.00
16578;DHT22;8401;52.528;13.340;2023-05-13T02:50:54;15.50;87.30
16578;DHT22;8401;52.528;13.340;2023-05-13T02:53:19;15.50;87.20
16578;DHT22;8401;52.528;13.340;2023-05-13T02:55:45;15.50;87.30
16578;DHT22;8401;52.528;13.340;2023-05-13T02:58:11;15.50;87.50
16578;DHT22;8401;52.528;13.340;2023-05-13T03:00:37;15.50;87.30
16578;DHT22;8401;52.528;13.340;2023-05-13T03:03:02;15.60;87.20
16578;DHT22;8401;52.528;13.340;2023-05-13T03:05:28;15.60;87.20
16578;DHT22;8401;52.528;13.340;2023-05-13T03:07:54;15.60;86.80
16578;DHT22;8401;52.528;13.340;2023-05-13T03:10:19;15.60;87.00
16578;DHT22;8401;52.528;13.340;2023-05-13T03:12:45;15.50;87.50
16578;DHT22;8401;52.528;13.340;2023-05-13T03:15:11;15.50;87.30
16578;DHT22;8401;52.528;13.340;2023-05-13T03:17:37;15.40;87.40
16578;DHT22;8401;52.528;13.340;2023-05-13T03:20:03;15.40;87.60
16578;DHT22;8401;52.528;13.340;2023-05-13T03:22:28;15.50;87.10
16578;DHT22;8401;52.528;13.340;2023-05-13T03:24:54;15.40;87.10
16578;DHT22;8401;52.528;13.340;2023-05-13T03:27:19;15.40;87.20
16578;DHT22;8401;52.528;13.340;2023-05-13T03:29:45;15.30;87.20
16578;DHT22;8401;52.528;13.340;2023-05-13T03:32:11;15.20;87.90
16578;DHT22;8401;52.528;13.340;2023-05-13T03:34:36;15.20;88.00
16578;DHT22;8401;52.528;13.340;2023-05-13T03:37:02;15.20;87.50
16578;DHT22;8401;52.528;13.340;2023-05-13T03:39:28;15.30;87.50
16578;DHT22;8401;52.528;13.340;2023-05-13T03:41:54;15.20;87.50
16578;DHT22;8401;52.528;13.340;2023-05-13T03:44:19;15.20;87.50
16578;DHT22;8401;52.528;13.340;2023-05-13T03:46:45;15.10;87.60
16578;DHT22;8401;52.528;13.340;2023-05-13T03:49:11;15.10;87.80
16578;DHT22;8401;52.528;13.340;2023-05-13T03:51:36;15.00;87.90
16578;DHT22;8401;52.528;13.340;2023-05-13T03:54:02;15.00;88.00
16578;DHT22;8401;52.528;13.340;2023-05-13T03:56:28;15.00;88.00
16578;DHT22;8401;52.528;13.340;2023-05-13T03:58:53;15.00;88.10
16578;DHT22;8401;52.528;13.340;2023-05-13T04:01:20;15.00;88.10
16578;DHT22;8401;52.528;13.340;2023-05-13T04:03:46;15.00;88.20
16578;DHT22;8401;52.528;13.340;2023-05-13T04:06:12;15.00;88.30
16578;DHT22;8401;52.528;13.340;2023-05-13T04:08:39;15.00;88.30
16578;DHT22;8401;52.528;13.340;2023-05-13T04:11:05;15.00;88.40
16578;DHT22;8401;52.528;13.340;2023-05-13T04:13:33;15.00;88.60
16578;DHT22;8401;52.528;13.340;2023-05-13T04:15:59;15.00;88.30
16578;DHT22;8401;52.528;13.340;2023-05-13T04:18:25;15.00;88.30
16578;DHT22;8401;52.528;13.340;2023-05-13T04:20:51;15.00;88.30
16578;DHT22;8401;52.528;13.340;2023-05-13T04:23:16;15.00;88.40
16578;DHT22;8401;52.528;13.340;2023-05-13T04:25:42;15.00;88.60
16578;DHT22;8401;52.528;13.340;2023-05-13T04:28:08;15.00;88.60
16578;DHT22;8401;52.528;13.340;2023-05-13T04:30:34;15.00;88.60
16578;DHT22;8401;52.528;13.340;2023-05-13T04:33:00;15.00;88.50
16578;DHT22;8401;52.528;13.340;2023-05-13T04:35:26;15.10;88.10
16578;DHT22;8401;52.528;13.340;2023-05-13T04:37:51;15.10;88.00
16578;DHT22;8401;52.528;13.340;2023-05-13T04:40:17;15.10;87.80
16578;DHT22;8401;52.528;13.340;2023-05-13T04:42:43;15.20;87.50
16578;DHT22;8401;52.528;13.340;2023-05-13T04:45:08;15.20;87.70
16578;DHT22;8401;52.528;13.340;2023-05-13T04:47:35;15.20;87.60
16578;DHT22;8401;52.528;13.340;2023-05-13T04:50:02;15.20;87.00
16578;DHT22;8401;52.528;13.340;2023-05-13T04:52:28;15.20;86.80
16578;DHT22;8401;52.528;13.340;2023-05-13T04:54:53;15.20;87.30
16578;DHT22;8401;52.528;13.340;2023-05-13T04:57:19;15.20;87.00
16578;DHT22;8401;52.528;13.340;2023-05-13T04:59:45;15.20;86.80
16578;DHT22;8401;52.528;13.340;2023-05-13T05:02:10;15.30;86.90
16578;DHT22;8401;52.528;13.340;2023-05-13T05:04:36;15.30;87.30
16578;DHT22;8401;52.528;13.340;2023-05-13T05:07:02;15.40;86.00
16578;DHT22;8401;52.528;13.340;2023-05-13T05:09:27;15.40;85.80
16578;DHT22;8401;52.528;13.340;2023-05-13T05:11:54;15.40;85.70
16578;DHT22;8401;52.528;13.340;2023-05-13T05:14:20;15.40;85.70
16578;DHT22;8401;52.528;13.340;2023-05-13T05:16:45;15.50;85.80
16578;DHT22;8401;52.528;13.340;2023-05-13T05:19:11;15.50;85.10
16578;DHT22;8401;52.528;13.340;2023-05-13T05:21:37;15.50;85.60
16578;DHT22;8401;52.528;13.340;2023-05-13T05:24:03;15.60;85.90
16578;DHT22;8401;52.528;13.340;2023-05-13T05:26:28;15.60;84.80
16578;DHT22;8401;52.528;13.340;2023-05-13T05:28:54;15.60;84.90
16578;DHT22;8401;52.528;13.340;2023-05-13T05:31:20;15.70;84.80
16578;DHT22;8401;52.528;13.340;2023-05-13T05:33:45;15.70;84.80
16578;DHT22;8401;52.528;13.340;2023-05-13T05:36:11;15.70;85.00
16578;DHT22;8401;52.528;13.340;2023-05-13T05:38:37;15.90;84.30
16578;DHT22;8401;52.528;13.340;2023-05-13T05:41:02;16.00;84.00
16578;DHT22;8401;52.528;13.340;2023-05-13T05:43:28;16.10;84.00
16578;DHT22;8401;52.528;13.340;2023-05-13T05:45:55;16.20;83.50
16578;DHT22;8401;52.528;13.340;2023-05-13T05:48:20;16.30;82.40
16578;DHT22;8401;52.528;13.340;2023-05-13T05:50:46;16.30;82.00
16578;DHT22;8401;52.528;13.340;2023-05-13T05:53:13;16.30;81.70
16578;DHT22;8401;52.528;13.340;2023-05-13T05:55:39;16.40;81.60
16578;DHT22;8401;52.528;13.340;2023-05-13T05:58:04;16.50;81.40
16578;DHT22;8401;52.528;13.340;2023-05-13T06:00:31;16.50;81.40
16578;DHT22;8401;52.528;13.340;2023-05-13T06:03:00;16.60;81.20
16578;DHT22;8401;52.528;13.340;2023-05-13T06:05:25;16.70;80.90
16578;DHT22;8401;52.528;13.340;2023-05-13T06:07:51;16.80;80.90
16578;DHT22;8401;52.528;13.340;2023-05-13T06:10:17;16.90;80.30
16578;DHT22;8401;52.528;13.340;2023-05-13T06:12:42;16.90;79.50
16578;DHT22;8401;52.528;13.340;2023-05-13T06:15:08;17.00;79.50
16578;DHT22;8401;52.528;13.340;2023-05-13T06:17:37;17.00;79.20
16578;DHT22;8401;52.528;13.340;2023-05-13T06:20:03;17.00;79.20
16578;DHT22;8401;52.528;13.340;2023-05-13T06:22:30;17.10;79.10
16578;DHT22;8401;52.528;13.340;2023-05-13T06:24:56;17.10;79.00
16578;DHT22;8401;52.528;13.340;2023-05-13T06:27:21;17.30;78.50
16578;DHT22;8401;52.528;13.340;2023-05-13T06:29:47;17.40;77.60
16578;DHT22;8401;52.528;13.340;2023-05-13T06:32:13;17.40;77.90
16578;DHT22;8401;52.528;13.340;2023-05-13T06:34:38;17.40;78.00
16578;DHT22;8401;52.528;13.340;2023-05-13T06:37:06;17.50;77.30
16578;DHT22;8401;52.528;13.340;2023-05-13T06:39:32;17.60;76.90
16578;DHT22;8401;52.528;13.340;2023-05-13T06:41:58;17.60;76.40
16578;DHT22;8401;52.528;13.340;2023-05-13T06:44:24;17.60;76.60
16578;DHT22;8401;52.528;13.340;2023-05-13T06:46:49;17.70;76.10
16578;DHT22;8401;52.528;13.340;2023-05-13T06:49:15;17.90;76.50
16578;DHT22;8401;52.528;13.340;2023-05-13T06:51:41;18.10;75.80
16578;DHT22;8401;52.528;13.340;2023-05-13T06:54:06;18.20;75.60
16578;DHT22;8401;52.528;13.340;2023-05-13T06:56:33;18.30;75.20
16578;DHT22;8401;52.528;13.340;2023-05-13T06:58:59;18.40;75.40
16578;DHT22;8401;52.528;13.340;2023-05-13T07:01:24;18.70;75.50
16578;DHT22;8401;52.528;13.340;2023-05-13T07:03:50;19.00;73.40
16578;DHT22;8401;52.528;13.340;2023-05-13T07:06:16;19.00;74.40
16578;DHT22;8401;52.528;13.340;2023-05-13T07:08:42;19.00;73.70
16578;DHT22;8401;52.528;13.340;2023-05-13T07:11:07;19.40;73.40
16578;DHT22;8401;52.528;13.340;2023-05-13T07:13:33;19.50;73.00
16578;DHT22;8401;52.528;13.340;2023-05-13T07:16:00;19.60;71.00
16578;DHT22;8401;52.528;13.340;2023-05-13T07:18:27;19.70;71.20
16578;DHT22;8401;52.528;13.340;2023-05-13T07:20:53;19.80;71.20
16578;DHT22;8401;52.528;13.340;2023-05-13T07:23:21;20.00;70.50
16578;DHT22;8401;52.528;13.340;2023-05-13T07:25:46;20.10;70.40
16578;DHT22;8401;52.528;13.340;2023-05-13T07:28:12;20.30;69.40
16578;DHT22;8401;52.528;13.340;2023-05-13T07:30:41;20.30;70.20
16578;DHT22;8401;52.528;13.340;2023-05-13T07:33:06;20.50;68.30
16578;DHT22;8401;52.528;13.340;2023-05-13T07:35:32;20.70;68.40
16578;DHT22;8401;52.528;13.340;2023-05-13T07:37:58;20.90;68.40
16578;DHT22;8401;52.528;13.340;2023-05-13T07:40:23;21.20;66.50
16578;DHT22;8401;52.528;13.340;2023-05-13T07:42:49;21.20;65.90
16578;DHT22;8401;52.528;13.340;2023-05-13T07:45:15;21.30;65.40
16578;DHT22;8401;52.528;13.340;2023-05-13T07:47:40;21.40;64.60
16578;DHT22;8401;52.528;13.340;2023-05-13T07:50:07;21.50;64.80
16578;DHT22;8401;52.528;13.340;2023-05-13T07:52:33;21.50;64.10
16578;DHT22;8401;52.528;13.340;2023-05-13T07:54:58;21.50;63.80
16578;DHT22;8401;52.528;13.340;2023-05-13T07:57:24;21.50;63.90
16578;DHT22;8401;52.528;13.340;2023-05-13T07:59:50;21.40;62.00
16578;DHT22;8401;52.528;13.340;2023-05-13T08:02:17;21.50;63.20
16578;DHT22;8401;52.528;13.340;2023-05-13T08:04:42;21.80;61.60
16578;DHT22;8401;52.528;13.340;2023-05-13T08:07:09;21.90;61.40
16578;DHT22;8401;52.528;13.340;2023-05-13T08:09:35;22.80;60.40
16578;DHT22;8401;52.528;13.340;2023-05-13T08:12:01;23.90;60.10
16578;DHT22;8401;52.528;13.340;2023-05-13T08:14:26;24.90;59.30
16578;DHT22;8401;52.528;13.340;2023-05-13T08:16:52;25.40;59.00
16578;DHT22;8401;52.528;13.340;2023-05-13T08:19:18;25.80;59.00
16578;DHT22;8401;52.528;13.340;2023-05-13T08:21:44;25.90;59.00
16578;DHT22;8401;52.528;13.340;2023-05-13T08:24:10;26.50;58.70
16578;DHT22;8401;52.528;13.340;2023-05-13T08:26:36;27.00;58.80
16578;DHT22;8401;52.528;13.340;2023-05-13T08:29:02;27.80;58.30
16578;DHT22;8401;52.528;13.340;2023-05-13T08:31:27;28.30;58.00
16578;DHT22;8401;52.528;13.340;2023-05-13T08:33:53;27.70;57.90
16578;DHT22;8401;52.528;13.340;2023-05-13T08:36:19;26.40;58.60
16578;DHT22;8401;52.528;13.340;2023-05-13T08:38:47;25.80;59.10
16578;DHT22;8401;52.528;13.340;2023-05-13T08:41:13;25.60;59.30
16578;DHT22;8401;52.528;13.340;2023-05-13T08:43:44;25.30;59.60
16578;DHT22;8401;52.528;13.340;2023-05-13T08:46:11;25.40;60.10
16578;DHT22;8401;52.528;13.340;2023-05-13T08:48:40;25.70;59.20
16578;DHT22;8401;52.528;13.340;2023-05-13T08:51:08;25.80;60.00
16578;DHT22;8401;52.528;13.340;2023-05-13T08:53:34;26.50;59.40
16578;DHT22;8401;52.528;13.340;2023-05-13T08:56:01;27.50;59.20
16578;DHT22;8401;52.528;13.340;2023-05-13T08:58:27;28.50;58.50
16578;DHT22;8401;52.528;13.340;2023-05-13T09:00:52;28.50;57.90
16578;DHT22;8401;52.528;13.340;2023-05-13T09:03:19;28.60;57.90
16578;DHT22;8401;52.528;13.340;2023-05-13T09:05:46;29.10;57.90
16578;DHT22;8401;52.528;13.340;2023-05-13T09:08:12;29.80;57.20
16578;DHT22;8401;52.528;13.340;2023-05-13T09:10:38;30.10;57.00
16578;DHT22;8401;52.528;13.340;2023-05-13T09:13:04;29.70;56.90
16578;DHT22;8401;52.528;13.340;2023-05-13T09:15:31;29.60;56.50
16578;DHT22;8401;52.528;13.340;2023-05-13T09:18:06;29.30;55.90
16578;DHT22;8401;52.528;13.340;2023-05-13T09:20:32;28.80;56.00
16578;DHT22;8401;52.528;13.340;2023-05-13T09:23:06;28.20;55.70
16578;DHT22;8401;52.528;13.340;2023-05-13T09:25:32;27.80;55.70
16578;DHT22;8401;52.528;13.340;2023-05-13T09:28:00;27.90;56.00
16578;DHT22;8401;52.528;13.340;2023-05-13T09:30:33;28.00;55.90
16578;DHT22;8401;52.528;13.340;2023-05-13T09:33:15;28.20;56.10
16578;DHT22;8401;52.528;13.340;2023-05-13T09:35:49;28.90;55.00
16578;DHT22;8401;52.528;13.340;2023-05-13T09:40:56;28.80;55.20
16578;DHT22;8401;52.528;13.340;2023-05-13T09:43:24;28.60;54.80
16578;DHT22;8401;52.528;13.340;2023-05-13T09:45:59;28.40;54.90
16578;DHT22;8401;52.528;13.340;2023-05-13T09:48:27;29.20;55.00
16578;DHT22;8401;52.528;13.340;2023-05-13T09:50:53;30.30;55.40
16578;DHT22;8401;52.528;13.340;2023-05-13T09:53:20;31.00;53.70
16578;DHT22;8401;52.528;13.340;2023-05-13T09:55:47;31.30;53.30
16578;DHT22;8401;52.528;13.340;2023-05-13T09:58:13;31.10;52.20
16578;DHT22;8401;52.528;13.340;2023-05-13T10:00:40;31.30;52.00
16578;DHT22;8401;52.528;13.340;2023-05-13T10:03:06;32.00;51.20
16578;DHT22;8401;52.528;13.340;2023-05-13T10:05:32;31.20;50.00
16578;DHT22;8401;52.528;13.340;2023-05-13T10:07:59;30.90;49.90
16578;DHT22;8401;52.528;13.340;2023-05-13T10:10:28;30.80;49.80
16578;DHT22;8401;52.528;13.340;2023-05-13T10:12:54;30.90;49.50
16578;DHT22;8401;52.528;13.340;2023-05-13T10:15:21;30.60;49.50
16578;DHT22;8401;52.528;13.340;2023-05-13T10:17:48;30.80;49.40
16578;DHT22;8401;52.528;13.340;2023-05-13T10:20:14;31.00;49.60
16578;DHT22;8401;52.528;13.340;2023-05-13T10:22:40;30.50;49.50
16578;DHT22;8401;52.528;13.340;2023-05-13T10:25:06;30.80;49.10
16578;DHT22;8401;52.528;13.340;2023-05-13T10:27:33;31.10;48.90
16578;DHT22;8401;52.528;13.340;2023-05-13T10:30:00;30.90;48.60
16578;DHT22;8401;52.528;13.340;2023-05-13T10:32:28;30.40;48.70
16578;DHT22;8401;52.528;13.340;2023-05-13T10:35:13;30.60;48.80
16578;DHT22;8401;52.528;13.340;2023-05-13T10:43:19;33.00;47.90
16578;DHT22;8401;52.528;13.340;2023-05-13T10:45:51;33.00;48.10
16578;DHT22;8401;52.528;13.340;2023-05-13T10:48:21;32.80;47.10
16578;DHT22;8401;52.528;13.340;2023-05-13T10:51:00;31.80;47.10
16578;DHT22;8401;52.528;13.340;2023-05-13T10:53:30;32.30;47.50
16578;DHT22;8401;52.528;13.340;2023-05-13T10:55:57;32.30;47.30
16578;DHT22;8401;52.528;13.340;2023-05-13T10:58:31;32.30;47.00
16578;DHT22;8401;52.528;13.340;2023-05-13T11:01:16;32.80;47.10
16578;DHT22;8401;52.528;13.340;2023-05-13T11:03:56;32.80;47.70
16578;DHT22;8401;52.528;13.340;2023-05-13T11:06:44;33.20;47.10
16578;DHT22;8401;52.528;13.340;2023-05-13T11:09:28;32.90;47.30
16578;DHT22;8401;52.528;13.340;2023-05-13T11:11:56;33.70;46.80
16578;DHT22;8401;52.528;13.340;2023-05-13T11:14:23;33.60;45.50
16578;DHT22;8401;52.528;13.340;2023-05-13T11:19:34;33.00;46.50
16578;DHT22;8401;52.528;13.340;2023-05-13T11:22:08;35.00;45.50
16578;DHT22;8401;52.528;13.340;2023-05-13T11:24:38;35.10;44.80
16578;DHT22;8401;52.528;13.340;2023-05-13T11:32:14;35.40;44.80
16578;DHT22;8401;52.528;13.340;2023-05-13T11:35:00;33.40;45.10
16578;DHT22;8401;52.528;13.340;2023-05-13T11:37:26;35.10;44.70
16578;DHT22;8401;52.528;13.340;2023-05-13T11:39:51;35.70;43.70
16578;DHT22;8401;52.528;13.340;2023-05-13T11:42:17;35.40;43.60
16578;DHT22;8401;52.528;13.340;2023-05-13T11:44:46;35.20;43.10
16578;DHT22;8401;52.528;13.340;2023-05-13T11:47:12;34.40;43.90
16578;DHT22;8401;52.528;13.340;2023-05-13T11:52:12;35.60;43.90
16578;DHT22;8401;52.528;13.340;2023-05-13T11:54:53;35.50;44.00
16578;DHT22;8401;52.528;13.340;2023-05-13T11:59:55;32.20;44.00
16578;DHT22;8401;52.528;13.340;2023-05-13T12:02:30;31.20;44.20
16578;DHT22;8401;52.528;13.340;2023-05-13T12:05:04;29.70;45.30
16578;DHT22;8401;52.528;13.340;2023-05-13T12:07:30;28.30;46.50
16578;DHT22;8401;52.528;13.340;2023-05-13T12:09:58;27.90;46.90
16578;DHT22;8401;52.528;13.340;2023-05-13T12:12:25;27.50;47.30
16578;DHT22;8401;52.528;13.340;2023-05-13T12:14:52;27.10;47.40
16578;DHT22;8401;52.528;13.340;2023-05-13T12:17:19;26.30;47.70
16578;DHT22;8401;52.528;13.340;2023-05-13T12:20:04;25.90;48.10
16578;DHT22;8401;52.528;13.340;2023-05-13T12:22:30;25.70;48.50
16578;DHT22;8401;52.528;13.340;2023-05-13T12:24:56;25.70;48.40
16578;DHT22;8401;52.528;13.340;2023-05-13T12:27:25;25.50;48.20
16578;DHT22;8401;52.528;13.340;2023-05-13T12:29:54;25.70;48.50
16578;DHT22;8401;52.528;13.340;2023-05-13T12:32:20;25.50;48.70
16578;DHT22;8401;52.528;13.340;2023-05-13T12:34:50;25.60;48.20
16578;DHT22;8401;52.528;13.340;2023-05-13T12:37:16;25.40;48.40
16578;DHT22;8401;52.528;13.340;2023-05-13T12:39:42;25.40;48.40
16578;DHT22;8401;52.528;13.340;2023-05-13T12:42:16;25.50;48.90
16578;DHT22;8401;52.528;13.340;2023-05-13T12:44:45;25.30;48.60
16578;DHT22;8401;52.528;13.340;2023-05-13T12:47:12;25.20;49.10
16578;DHT22;8401;52.528;13.340;2023-05-13T12:49:58;25.40;49.40
16578;DHT22;8401;52.528;13.340;2023-05-13T12:52:24;25.60;49.30
16578;DHT22;8401;52.528;13.340;2023-05-13T12:54:49;25.40;50.10
16578;DHT22;8401;52.528;13.340;2023-05-13T12:57:18;25.30;49.70
16578;DHT22;8401;52.528;13.340;2023-05-13T12:59:45;25.40;50.00
16578;DHT22;8401;52.528;13.340;2023-05-13T13:02:11;25.30;50.10
16578;DHT22;8401;52.528;13.340;2023-05-13T13:04:37;25.40;50.00
16578;DHT22;8401;52.528;13.340;2023-05-13T13:07:03;25.40;50.40
16578;DHT22;8401;52.528;13.340;2023-05-13T13:09:34;25.20;50.30
16578;DHT22;8401;52.528;13.340;2023-05-13T13:12:00;24.90;50.30
16578;DHT22;8401;52.528;13.340;2023-05-13T13:14:25;24.80;50.50
16578;DHT22;8401;52.528;13.340;2023-05-13T13:16:51;24.60;50.70
16578;DHT22;8401;52.528;13.340;2023-05-13T13:19:17;24.70;50.90
16578;DHT22;8401;52.528;13.340;2023-05-13T13:21:42;24.50;51.10
16578;DHT22;8401;52.528;13.340;2023-05-13T13:24:08;24.30;51.60
16578;DHT22;8401;52.528;13.340;2023-05-13T13:26:34;24.20;52.00
16578;DHT22;8401;52.528;13.340;2023-05-13T13:28:59;24.40;51.80
16578;DHT22;8401;52.528;13.340;2023-05-13T13:31:25;24.70;52.10
16578;DHT22;8401;52.528;13.340;2023-05-13T13:33:51;24.80;52.20
16578;DHT22;8401;52.528;13.340;2023-05-13T13:36:18;24.90;52.20
16578;DHT22;8401;52.528;13.340;2023-05-13T13:38:44;24.80;52.40
16578;DHT22;8401;52.528;13.340;2023-05-13T13:41:09;24.60;52.60
16578;DHT22;8401;52.528;13.340;2023-05-13T13:43:35;24.50;52.30
16578;DHT22;8401;52.528;13.340;2023-05-13T13:46:01;24.50;52.40
16578;DHT22;8401;52.528;13.340;2023-05-13T13:48:26;24.40;52.50
16578;DHT22;8401;52.528;13.340;2023-05-13T13:50:52;24.30;52.60
16578;DHT22;8401;52.528;13.340;2023-05-13T13:53:19;24.00;53.30
16578;DHT22;8401;52.528;13.340;2023-05-13T13:55:45;24.00;52.80
16578;DHT22;8401;52.528;13.340;2023-05-13T13:58:10;24.10;52.90
16578;DHT22;8401;52.528;13.340;2023-05-13T14:00:36;24.20;52.70
16578;DHT22;8401;52.528;13.340;2023-05-13T14:03:02;24.30;53.00
16578;DHT22;8401;52.528;13.340;2023-05-13T14:05:27;24.20;52.70
16578;DHT22;8401;52.528;13.340;2023-05-13T14:07:54;24.10;53.00
16578;DHT22;8401;52.528;13.340;2023-05-13T14:10:20;24.10;52.90
16578;DHT22;8401;52.528;13.340;2023-05-13T14:12:46;24.20;52.80
16578;DHT22;8401;52.528;13.340;2023-05-13T14:15:12;24.10;52.70
16578;DHT22;8401;52.528;13.340;2023-05-13T14:17:37;24.50;52.90
16578;DHT22;8401;52.528;13.340;2023-05-13T14:20:04;24.70;52.40
16578;DHT22;8401;52.528;13.340;2023-05-13T14:22:30;24.50;52.50
16578;DHT22;8401;52.528;13.340;2023-05-13T14:24:57;24.20;52.80
16578;DHT22;8401;52.528;13.340;2023-05-13T14:27:23;24.20;53.30
16578;DHT22;8401;52.528;13.340;2023-05-13T14:29:49;24.30;54.00
16578;DHT22;8401;52.528;13.340;2023-05-13T14:32:15;24.60;53.60
16578;DHT22;8401;52.528;13.340;2023-05-13T14:34:41;24.90;53.50
16578;DHT22;8401;52.528;13.340;2023-05-13T14:37:07;25.10;53.10
16578;DHT22;8401;52.528;13.340;2023-05-13T14:39:32;24.90;52.60
16578;DHT22;8401;52.528;13.340;2023-05-13T14:41:58;24.20;53.20
16578;DHT22;8401;52.528;13.340;2023-05-13T14:44:24;23.90;53.50
16578;DHT22;8401;52.528;13.340;2023-05-13T14:46:50;23.60;54.00
16578;DHT22;8401;52.528;13.340;2023-05-13T14:49:15;23.70;53.80
16578;DHT22;8401;52.528;13.340;2023-05-13T14:51:41;23.90;53.90
16578;DHT22;8401;52.528;13.340;2023-05-13T14:54:06;24.10;53.70
16578;DHT22;8401;52.528;13.340;2023-05-13T14:56:32;24.40;53.50
16578;DHT22;8401;52.528;13.340;2023-05-13T14:58:58;24.50;53.10
16578;DHT22;8401;52.528;13.340;2023-05-13T15:01:24;24.60;53.20
16578;DHT22;8401;52.528;13.340;2023-05-13T15:03:50;24.60;53.30
16578;DHT22;8401;52.528;13.340;2023-05-13T15:06:15;24.50;53.70
16578;DHT22;8401;52.528;13.340;2023-05-13T15:08:41;24.40;53.60
16578;DHT22;8401;52.528;13.340;2023-05-13T15:11:06;24.40;53.70
16578;DHT22;8401;52.528;13.340;2023-05-13T15:13:32;24.20;53.80
16578;DHT22;8401;52.528;13.340;2023-05-13T15:16:03;24.00;54.00
16578;DHT22;8401;52.528;13.340;2023-05-13T15:18:30;24.00;54.40
16578;DHT22;8401;52.528;13.340;2023-05-13T15:20:55;24.00;53.30
16578;DHT22;8401;52.528;13.340;2023-05-13T15:23:21;24.00;53.20
16578;DHT22;8401;52.528;13.340;2023-05-13T15:25:46;24.10;52.90
16578;DHT22;8401;52.528;13.340;2023-05-13T15:28:13;24.20;53.60
16578;DHT22;8401;52.528;13.340;2023-05-13T15:30:38;24.20;53.20
16578;DHT22;8401;52.528;13.340;2023-05-13T15:33:04;24.20;53.80
16578;DHT22;8401;52.528;13.340;2023-05-13T15:35:30;24.40;53.20
16578;DHT22;8401;52.528;13.340;2023-05-13T15:37:56;24.70;53.00
16578;DHT22;8401;52.528;13.340;2023-05-13T15:40:22;24.70;52.60
16578;DHT22;8401;52.528;13.340;2023-05-13T15:42:48;24.40;52.50
16578;DHT22;8401;52.528;13.340;2023-05-13T15:45:14;24.20;52.80
16578;DHT22;8401;52.528;13.340;2023-05-13T15:47:40;24.10;53.10
16578;DHT22;8401;52.528;13.340;2023-05-13T15:50:06;24.20;53.10